Aktuální počasí v Česku a ve světě - METAR

Seznam meteostanic umístěných nejčasteji na letišti v ČR a ve světě

Vyhledat místa podle abecedy:
A B C D E F G H I J K L M N O P Q R S T U V W X Y Z

Filtrovat:

ID stanice:
a/nebo
Název místa (fulltext):
 
Místo (ID)Naposledy načteno 
Brno - Tuřany (Brno/Tu) 09.05.2021 04:00 UTC Zobrazit data
Místo: Brno - Tuřany
Teplota: 7 °C (pocitová: 2 °C)
Vítr: 3 m/s z(e) 60°
Počasí: skorojasno
Dohlednost: 40 km
Zákl. oblačnosti: 1/8 9000 m
Vlhkost: 61%
Červená - Opava (Cervena/uL) 09.05.2021 04:00 UTC Zobrazit data
Místo: Červená - Opava
Teplota: 6 °C (pocitová: -1.7 °C)
Vítr: 7 m/s z(e) 190°
Počasí:
Dohlednost: 35 km
Zákl. oblačnosti: N/A
Vlhkost: 61%
České Budějovice (C.Budej/po) 09.05.2021 04:00 UTC Zobrazit data
Místo: České Budějovice
Teplota: 5 °C (pocitová: -0.7 °C)
Vítr: 3 m/s z(e) 160°
Počasí:
Dohlednost: 35 km
Zákl. oblačnosti: N/A
Vlhkost: 76%
Cheb (Cheb) 09.05.2021 04:00 UTC Zobrazit data
Místo: Cheb
Teplota: 4 °C (pocitová: 0.6 °C)
Vítr: 1 m/s z(e) 0°
Počasí: skoro zataženo
Dohlednost: 30 km
Zákl. oblačnosti: 7/8 7800 m
Vlhkost: 87%
Chotusice - Čáslav (Caslav) 09.05.2021 04:00 UTC Zobrazit data
Místo: Chotusice - Čáslav
Teplota: 7 °C (pocitová: 2 °C)
Vítr: 3 m/s z(e) 130°
Počasí: oblačno
Dohlednost: 20 km
Zákl. oblačnosti: 4/8 6600 m
Vlhkost: 71%
Churáňov (Churanov) 09.05.2021 04:00 UTC Zobrazit data
Místo: Churáňov
Teplota: 6 °C (pocitová: -0.2 °C)
Vítr: 4 m/s z(e) 220°
Počasí: skoro zataženo
Dohlednost: 35 km
Zákl. oblačnosti: 7/8 7500 m
Vlhkost: 66%
Doksany - Litoměřice (Doksany) 09.05.2021 04:00 UTC Zobrazit data
Místo: Doksany - Litoměřice
Teplota: 5 °C (pocitová: 1.8 °C)
Vítr: 1 m/s z(e) 70°
Počasí: zataženo
Dohlednost: 35 km
Zákl. oblačnosti: 6/8 8400 m;7/8 9000 m
Vlhkost: 81%
Dukovany (Dukovany) 09.05.2021 04:00 UTC Zobrazit data
Místo: Dukovany
Teplota: 5 °C (pocitová: 0.5 °C)
Vítr: 2 m/s z(e) 70°
Počasí:
Dohlednost: 25 km
Zákl. oblačnosti: N/A
Vlhkost: 76%
Holešov (Holesov) 09.05.2021 04:00 UTC Zobrazit data
Místo: Holešov
Teplota: 7 °C (pocitová: 1.2 °C)
Vítr: 4 m/s z(e) 140°
Počasí: skoro zataženo
Dohlednost: 35 km
Zákl. oblačnosti: 7/8 9300 m
Vlhkost: 66%
Kadaň - Tušimice (Tusimice) 09.05.2021 04:00 UTC Zobrazit data
Místo: Kadaň - Tušimice
Teplota: 4 °C (pocitová: -2 °C)
Vítr: 3 m/s z(e) 250°
Počasí: oblačno
Dohlednost: 35 km
Zákl. oblačnosti: 4/8 7200 m
Vlhkost: 87%
Karlovy Vary (K.Vary) 09.05.2021 04:00 UTC Zobrazit data
Místo: Karlovy Vary
Teplota: 5 °C (pocitová: -0.7 °C)
Vítr: 3 m/s z(e) 110°
Počasí: skoro zataženo
Dohlednost: 40 km
Zákl. oblačnosti: 3/8 3000 m;4/8 6000 m
Vlhkost: 70%
Kocelovice (Kocelovice) 09.05.2021 04:00 UTC Zobrazit data
Místo: Kocelovice
Teplota: 3 °C (pocitová: -2.1 °C)
Vítr: 2 m/s z(e) 50°
Počasí: zataženo
Dohlednost: 30 km
Zákl. oblačnosti: 8/8 7500 m
Vlhkost: 87%
Kopisty (Kopisty) 08.05.2021 21:00 UTC Zobrazit data
Místo: Kopisty
Teplota: 10 °C (pocitová: 19.3 °C)
Vítr: 0 m/s z(e) 0°
Počasí: skoro zataženo
Dohlednost: 35 km
Zákl. oblačnosti: 6/8 2700 m
Vlhkost: 58%
Kostelní Myslová (K.Myslova) 09.05.2021 04:00 UTC Zobrazit data
Místo: Kostelní Myslová
Teplota: 5 °C (pocitová: 0.5 °C)
Vítr: 2 m/s z(e) 130°
Počasí: zataženo
Dohlednost: 35 km
Zákl. oblačnosti: 4/8 7800 m;7/8 9000 m
Vlhkost: 76%
Křešín - Kramolín (Kramolin) 09.05.2021 04:00 UTC Zobrazit data
Místo: Křešín - Kramolín
Teplota: 5 °C (pocitová: 1.8 °C)
Vítr: 1 m/s z(e) 100°
Počasí: skorojasno
Dohlednost: 35 km
Zákl. oblačnosti: 2/8 8700 m
Vlhkost: 76%
Kuchařovice - Znojmo (Kucharovic) 09.05.2021 04:00 UTC Zobrazit data
Místo: Kuchařovice - Znojmo
Teplota: 3 °C (pocitová: -2.1 °C)
Vítr: 2 m/s z(e) 30°
Počasí:
Dohlednost: 35 km
Zákl. oblačnosti: N/A
Vlhkost: 87%
Liberec (Liberec) 09.05.2021 04:00 UTC Zobrazit data
Místo: Liberec
Teplota: 8 °C (pocitová: 2.6 °C)
Vítr: 4 m/s z(e) 140°
Počasí: skorojasno
Dohlednost: 35 km
Zákl. oblačnosti: 1/8 2400 m
Vlhkost: 57%
Luká (Luka) 09.05.2021 04:00 UTC Zobrazit data
Místo: Luká
Teplota: 5 °C (pocitová: -0.7 °C)
Vítr: 3 m/s z(e) 160°
Počasí:
Dohlednost: 35 km
Zákl. oblačnosti: N/A
Vlhkost: 70%
Lysá Hora (Lysa Hora) 09.05.2021 04:00 UTC Zobrazit data
Místo: Lysá Hora
Teplota: 1 °C (pocitová: -11.4 °C)
Vítr: 14 m/s z(e) 180°
Počasí:
Dohlednost: 35 km
Zákl. oblačnosti: N/A
Vlhkost: 81%
Milešovka (Milesovka) 09.05.2021 04:00 UTC Zobrazit data
Místo: Milešovka
Teplota: 7 °C (pocitová: -0.3 °C)
Vítr: 7 m/s z(e) 180°
Počasí: oblačno
Dohlednost: 65 km
Zákl. oblačnosti: 1/8 1800 m;4/8 7800 m
Vlhkost: 61%
Mošnov (Ostrava/Mo) 09.05.2021 04:00 UTC Zobrazit data
Místo: Mošnov
Teplota: 5 °C (pocitová: 0.5 °C)
Vítr: 2 m/s z(e) 200°
Počasí: skorojasno
Dohlednost: 30 km
Zákl. oblačnosti: 1/8 3900 m
Vlhkost: 70%
Náměšť nad Oslavou (Namest n/O) 09.05.2021 04:00 UTC Zobrazit data
Místo: Náměšť nad Oslavou
Teplota: 5 °C (pocitová: 0.5 °C)
Vítr: 2 m/s z(e) 90°
Počasí: skorojasno
Dohlednost: 25 km
Zákl. oblačnosti: 1/8 2100 m
Vlhkost: 76%
Pardubice (Pardubice) 09.05.2021 04:00 UTC Zobrazit data
Místo: Pardubice
Teplota: 6 °C (pocitová: 0.7 °C)
Vítr: 3 m/s z(e) 80°
Počasí: skorojasno
Dohlednost: 20 km
Zákl. oblačnosti: 2/8 6600 m
Vlhkost: 76%
Pec pod Sněžkou (Pec p.Snez) 09.05.2021 04:00 UTC Zobrazit data
Místo: Pec pod Sněžkou
Teplota: 1 °C (pocitová: -3.1 °C)
Vítr: 1 m/s z(e) 220°
Počasí: skorojasno
Dohlednost: 35 km
Zákl. oblačnosti: 2/8 9000 m
Vlhkost: 93%
Plzeň město - Mikulka (Plzen/Miku) 09.05.2021 04:00 UTC Zobrazit data
Místo: Plzeň město - Mikulka
Teplota: 3 °C (pocitová: -2.1 °C)
Vítr: 2 m/s z(e) 360°
Počasí: skorojasno
Dohlednost: 30 km
Zákl. oblačnosti: 1/8 7500 m
Vlhkost: 87%
Polom (Polom) 09.05.2021 04:00 UTC Zobrazit data
Místo: Polom
Teplota: 6 °C (pocitová: -1.2 °C)
Vítr: 6 m/s z(e) 150°
Počasí: skorojasno
Dohlednost: 40 km
Zákl. oblačnosti: 1/8 1800 m
Vlhkost: 66%
Praha - Karlov (Praha/Kar) 09.05.2021 04:00 UTC Zobrazit data
Místo: Praha - Karlov
Teplota: 6 °C (pocitová: 3.1 °C)
Vítr: 1 m/s z(e) 230°
Počasí: skoro zataženo
Dohlednost: 30 km
Zákl. oblačnosti: 7/8 7800 m
Vlhkost: 71%
Praha - Kbely (Praha/Kbe) 09.05.2021 04:00 UTC Zobrazit data
Místo: Praha - Kbely
Teplota: 5 °C (pocitová: 0.5 °C)
Vítr: 2 m/s z(e) 100°
Počasí: oblačno
Dohlednost: 30 km
Zákl. oblačnosti: 3/8 6300 m
Vlhkost: 81%
Praha - Libuš (Praha/Lib) 09.05.2021 04:00 UTC Zobrazit data
Místo: Praha - Libuš
Teplota: 7 °C (pocitová: N/A °C)
Vítr: N/A m/s z(e) N/A°
Počasí:
Dohlednost: 35 km
Zákl. oblačnosti: N/A
Vlhkost: 66%
Praha - Ruzyně (Praha/Ru) 09.05.2021 04:00 UTC Zobrazit data
Místo: Praha - Ruzyně
Teplota: 6 °C (pocitová: 0.7 °C)
Vítr: 3 m/s z(e) 160°
Počasí: skoro zataženo
Dohlednost: 45 km
Zákl. oblačnosti: 3/8 7800 m;5/8 9000 m
Vlhkost: 76%
Přibyslav (Pribyslav) 09.05.2021 04:00 UTC Zobrazit data
Místo: Přibyslav
Teplota: 4 °C (pocitová: N/A °C)
Vítr: N/A m/s z(e) N/A°
Počasí: oblačno
Dohlednost: 35 km
Zákl. oblačnosti: 3/8 9300 m
Vlhkost: 87%
Přimda (Primda) 09.05.2021 04:00 UTC Zobrazit data
Místo: Přimda
Teplota: 9 °C (pocitová: 5.6 °C)
Vítr: 2 m/s z(e) 200°
Počasí: oblačno
Dohlednost: 35 km
Zákl. oblačnosti: 4/8 7200 m
Vlhkost: 54%
Šerák (Serak) 09.05.2021 04:00 UTC Zobrazit data
Místo: Šerák
Teplota: 4 °C (pocitová: -4.6 °C)
Vítr: 7 m/s z(e) 230°
Počasí:
Dohlednost: 35 km
Zákl. oblačnosti: N/A
Vlhkost: 61%
Svratouch (Svratouch) 09.05.2021 04:00 UTC Zobrazit data
Místo: Svratouch
Teplota: 5 °C (pocitová: -2.7 °C)
Vítr: 6 m/s z(e) 180°
Počasí:
Dohlednost: 35 km
Zákl. oblačnosti: N/A
Vlhkost: 76%
Temelín (Temelin) 09.05.2021 04:00 UTC Zobrazit data
Místo: Temelín
Teplota: 7 °C (pocitová: 4.3 °C)
Vítr: 1 m/s z(e) 180°
Počasí: skorojasno
Dohlednost: 35 km
Zákl. oblačnosti: 2/8 7200 m
Vlhkost: 61%
Ústí nad Labem - Kočkov (Usti n/L) 09.05.2021 04:00 UTC Zobrazit data
Místo: Ústí nad Labem - Kočkov
Teplota: 7 °C (pocitová: 4.3 °C)
Vítr: 1 m/s z(e) 0°
Počasí:
Dohlednost: 35 km
Zákl. oblačnosti: N/A
Vlhkost: 61%
Ústí nad Orlicí (Usti n/O) 09.05.2021 04:00 UTC Zobrazit data
Místo: Ústí nad Orlicí
Teplota: 6 °C (pocitová: -0.8 °C)
Vítr: 5 m/s z(e) 110°
Počasí:
Dohlednost: 29 km
Zákl. oblačnosti: N/A
Vlhkost: 71%
Aalborg (EKYT) 09.05.2021 03:50 UTC Zobrazit METAR
EKYT 090350Z AUTO 13013KT 9999 -RA OVC008/// 07/07 Q1002
Aarhus (EKAH) 09.05.2021 03:50 UTC Zobrazit METAR
EKAH 090350Z AUTO 15010G21KT 090V200 9000 -RA OVC004/// 08/08 Q1003
Abu Dhabi (OMAA) 09.05.2021 04:00 UTC Zobrazit METAR
OMAA 090400Z VRB02KT 8000 NSC 30/17 Q1008 NOSIG
Abuja (DNAA) 09.05.2021 04:00 UTC Zobrazit METAR
DNAA 090400Z 24003KT 9999 SCT007 23/22 Q1014 NOSIG
Accra (DGAA) 09.05.2021 04:00 UTC Zobrazit METAR
DGAA 090400Z 26006KT CAVOK 25/23 Q1012 NOSIG
Addis Abeba (HAAB) 09.05.2021 04:00 UTC Zobrazit METAR
HAAB 090400Z 33004KT 9999 SCT025 14/12 Q1026
Agana (PGUM) 09.05.2021 03:54 UTC Zobrazit METAR
PGUM 090354Z 09015G22KT 10SM SCT025 30/23 A2982
Ahe Island (NTHE) Zatím nenačteno  
Akureyri (BIAR) 09.05.2021 04:00 UTC Zobrazit METAR
BIAR 090400Z 31005KT 9999 -SN SCT045 OVC063 M00/M04 Q1016
Almaty (UAAA) Zatím nenačteno  
Amman (OJAM) 09.05.2021 04:00 UTC Zobrazit METAR
OJAM 090400Z 24003KT 3000 HZ NSC 23/03 Q1015 NOSIG
Amsterdam (EHAM) 09.05.2021 03:55 UTC Zobrazit METAR
EHAM 090355Z 17011KT CAVOK 12/09 Q1002 NOSIG
Antananarivo (FMMI) 09.05.2021 04:00 UTC Zobrazit METAR
FMMI 090400Z 09004KT 9999 FEW010 BKN020 16/15 Q1019 NOSIG
1 2 3 ... 9 Další
Reklama

Reklama


Newslettter

Počasí na Váš email

Emaily jsou bez reklamy a bez spamu



Odhlásit newsletter





Zpravodajství o počasí z ČR i ze světa | Aktuálně na Webkamery Slunečno.cz

Všechny články

Další české internetové stránky (nejen) o počasí najdete v katalogu TOPlist - weby o počasí nebo vyhledejte na internetu, co jste tu na Počasí Slunečno Slunečnu zatím nenašli:
Přidat mezzi oblíbené stránkyPřidat Slunečno.cz do oblíbených | Nastavit jako HOMEPAGENastavit Slunečno.cz jako HOMEPAGE

Posunout stránku nahoru Posunout stránku nahoru Posunout stránku nahoru
Reklama